This is the latest recevied weather packets stored in our database for station/object W0SS-13. If no packets are shown the sender has not sent any weather packets the latest 10 day(s).
| Time | Temp. | Humidity | Pressure | Rain* | Wind** | Luminosity | Snow |
|---|---|---|---|---|---|---|---|
| 1777604970 | 11.67° C | 64% | 1019.8 hPa | 0 mm | - | 0 W/m² | - |
| 1777604665 | 11.67° C | 65% | 1019.9 hPa | 0 mm | - | 0 W/m² | - |
| 1777604363 | 11.67° C | 64% | 1019.8 hPa | 0 mm | - | 0 W/m² | - |
| 1777604057 | 11.67° C | 66% | 1019.7 hPa | 0 mm | - | 0 W/m² | - |
| 1777603754 | 11.67° C | 65% | 1019.7 hPa | 0 mm | - | 0 W/m² | - |
| 1777603450 | 11.67° C | 65% | 1019.7 hPa | 0 mm | - | 0 W/m² | - |
| 1777603146 | 11.67° C | 65% | 1019.4 hPa | 0 mm | - | 0 W/m² | - |
| 1777602841 | 11.67° C | 64% | 1019.5 hPa | 0 mm | - | 0 W/m² | - |
| 1777602536 | 12.22° C | 64% | 1019.1 hPa | 0 mm | - | 0 W/m² | - |
| 1777602232 | 12.22° C | 63% | 1019.1 hPa | 0 mm | - | 0 W/m² | - |
| 1777601929 | 12.22° C | 64% | 1018.9 hPa | 0 mm | - | 0 W/m² | - |
| 1777601623 | 12.22° C | 64% | 1018.9 hPa | 0 mm | - | 0 W/m² | - |
| 1777601319 | 12.22° C | 63% | 1018.8 hPa | 0 mm | - | 0 W/m² | - |
| 1777601016 | 12.78° C | 63% | 1018.7 hPa | 0 mm | - | 0 W/m² | - |
| 1777600713 | 12.78° C | 63% | 1018.7 hPa | 0 mm | - | 0 W/m² | - |
| 1777600408 | 12.78° C | 63% | 1018.6 hPa | 0 mm | - | 0 W/m² | - |
| 1777587056 | 18.33° C | 53% | 1016.4 hPa | 0 mm | - | 423 W/m² | - |
| 1777584932 | 17.78° C | 52% | 1016.7 hPa | 0 mm | - | 245 W/m² | - |
| 1777584630 | 18.33° C | 51% | 1016.7 hPa | 0 mm | - | 278 W/m² | - |
| 1777584326 | 18.33° C | 55% | 1016.9 hPa | 0 mm | - | 526 W/m² | - |
| 1777584022 | 17.78° C | 52% | 1016.8 hPa | 0 mm | - | 471 W/m² | - |
| 1777583717 | 17.78° C | 54% | 1017 hPa | 0 mm | - | 226 W/m² | - |
| 1777582812 | 18.33° C | 52% | 1017 hPa | 0 mm | - | 399 W/m² | - |
| 1777582509 | 17.78° C | 52% | 1017.2 hPa | 0 mm | - | 390 W/m² | - |
| 1777580679 | 18.33° C | 52% | 1017.5 hPa | 0 mm | - | 350 W/m² | - |
* Rain latest hour (hover to see other rain measurements)
** Current wind speed in m/s (hover to see current wind gust speed)